Peney — HOGK — position and weather

sailwx.info

Track history (hours):
 
Tides and Currents Weather Stations Pressure Air Temp Water Temp Dewpoint Dewpoint Depression Visibility Wind Speed Wind Dir Waves Ship Positions

Peney

Last reported at 2018-Jul-11 21:50 UTC. Time now 2018-Jul-22 04:41 UTC.
Position N 27°04' W 014°24'.
Warning: this ship's position is 10 days out of date.

Length 225 m; draft 7.3 m.

Type: Ship. MMSI: 374921000.

Date/timePositionNaut miles runAvg speedWind from/ knotsBaromVisibWave heightAir tempDewpointWater temp
2018-Jul-11 21:50N 27°04' W 014°24'812.4
2018-Jul-11 21:12N 27°11' W 014°19'312.5
2018-Jul-11 21:00N 27°13' W 014°18'812.7
2018-Jul-11 20:24N 27°19' W 014°13'612.9
2018-Jul-11 19:58N 27°24' W 014°09'613.0
2018-Jul-11 19:29N 27°29' W 014°05'612.7
2018-Jul-11 18:59N 27°34' W 014°02'1013.0
2018-Jul-11 18:14N 27°42' W 013°56'313.4
2018-Jul-11 18:01N 27°45' W 013°54'713.3
2018-Jul-11 17:30N 27°50' W 013°49'713.0
2018-Jul-11 16:57N 27°56' W 013°45'613.1
2018-Jul-11 16:30N 28°02' W 013°42'713.3
2018-Jul-11 15:59N 28°08' W 013°39'2013.0
2018-Jul-11 14:25N 28°26' W 013°29'612.9
2018-Jul-11 13:58N 28°32' W 013°27'612.8
2018-Jul-11 13:30N 28°37' W 013°24'612.9
2018-Jul-11 13:01N 28°43' W 013°21'712.9
2018-Jul-11 12:29N 28°49' W 013°18'612.8
2018-Jul-11 12:00N 28°55' W 013°15'712.8
2018-Jul-11 11:29N 29°01' W 013°12'612.7
2018-Jul-11 10:59N 29°06' W 013°08'1612.8
2018-Jul-11 09:42N 29°20' W 012°57'412.9
2018-Jul-11 09:23N 29°23' W 012°54'513.0
2018-Jul-11 09:00N 29°27' W 012°51'712.9
2018-Jul-11 08:26N 29°33' W 012°46'613.0
2018-Jul-11 08:01N 29°37' W 012°42'713.2
2018-Jul-11 07:30N 29°43' W 012°37'813.1
2018-Jul-11 06:53N 29°49' W 012°32'513.2
2018-Jul-11 06:30N 29°53' W 012°29'713.3
2018-Jul-11 05:59N 29°59' W 012°24'713.4
2018-Jul-11 05:29N 30°05' W 012°20'613.5
2018-Jul-11 05:00N 30°10' W 012°15'713.4
2018-Jul-11 04:30N 30°15' W 012°10'713.6
2018-Jul-11 04:01N 30°21' W 012°06'713.8
2018-Jul-11 03:30N 30°26' W 012°01'814.3
2018-Jul-11 02:59N 30°32' W 011°56'714.2
2018-Jul-11 02:31N 30°38' W 011°52'913.7
2018-Jul-11 01:49N 30°46' W 011°45'413.5
2018-Jul-11 01:30N 30°49' W 011°43'713.3
2018-Jul-11 00:59N 30°55' W 011°38'1813.1
2018-Jul-10 23:38N 31°09' W 011°26'313.1
2018-Jul-10 23:24N 31°11' W 011°24'513.1
2018-Jul-10 23:00N 31°16' W 011°20'713.2
2018-Jul-10 22:30N 31°21' W 011°15'613.2
2018-Jul-10 22:01N 31°26' W 011°11'713.1
2018-Jul-10 21:31N 31°32' W 011°07'713.0
2018-Jul-10 20:57N 31°38' W 011°02'713.4
2018-Jul-10 20:26N 31°43' W 010°57'613.5
2018-Jul-10 20:00N 31°48' W 010°53'3613.6
2018-Jul-10 17:20N 32°17' W 010°27'1013.6
2018-Jul-10 16:36N 32°24' W 010°19'313.8
2018-Jul-10 16:23N 32°26' W 010°16'613.7
2018-Jul-10 15:58N 32°30' W 010°12'3213.6
2018-Jul-10 13:38N 32°52' W 009°44'213.5
2018-Jul-10 13:30N 32°53' W 009°42'1113.6
2018-Jul-10 12:43N 33°01' W 009°33'413.3
2018-Jul-10 12:25N 33°03' W 009°30'14112.7
2018-Jul-10 01:21N 34°41' W 007°27'1012.6
2018-Jul-10 00:34N 34°48' W 007°19'112.7
2018-Jul-10 00:30N 34°48' W 007°18'4912.8
2018-Jul-09 20:40N 35°23' W 006°36'6312.5
2018-Jul-09 15:38N 35°59' W 005°32'1 9.6
2018-Jul-09 15:30N 35°59' W 005°31'5 9.7
2018-Jul-09 15:00N 36°00' W 005°25'510.9
2018-Jul-09 14:30N 36°02' W 005°18'44012.2
2018-Jul-08 02:22N 37°00' E 003°44'512.8
2018-Jul-08 02:00N 37°01' E 003°50'612.8
2018-Jul-08 01:30N 37°02' E 003°58'812.6
2018-Jul-08 00:54N 37°03' E 004°08'512.5
2018-Jul-08 00:28N 37°04' E 004°14'612.5
2018-Jul-07 23:59N 37°05' E 004°22'612.4
2018-Jul-07 23:30N 37°06' E 004°29'612.4
2018-Jul-07 23:00N 37°06' E 004°37'612.5
2018-Jul-07 22:30N 37°07' E 004°45'1312.7
2018-Jul-07 21:29N 37°10' E 005°00'912.9
2018-Jul-07 20:47N 37°11' E 005°12'413.0
2018-Jul-07 20:30N 37°11' E 005°16'713.3
2018-Jul-07 20:00N 37°12' E 005°24'713.6
2018-Jul-07 19:30N 37°13' E 005°33'713.8
2018-Jul-07 19:00N 37°14' E 005°42'33612.1
2018-Jul-06 15:07N 36°49' E 012°42'112.2
2018-Jul-06 15:00N 36°48' E 012°43'612.1
2018-Jul-06 14:29N 36°45' E 012°50'612.1
2018-Jul-06 14:00N 36°43' E 012°57'612.3
2018-Jul-06 13:30N 36°41' E 013°04'612.2
2018-Jul-06 13:00N 36°40' E 013°11'611.9
2018-Jul-06 12:30N 36°39' E 013°19'611.6
2018-Jul-06 12:00N 36°38' E 013°26'611.6
2018-Jul-06 11:30N 36°37' E 013°33'611.6
2018-Jul-06 11:00N 36°35' E 013°40'611.5
2018-Jul-06 10:29N 36°34' E 013°47'611.5
2018-Jul-06 10:00N 36°33' E 013°54'611.4
2018-Jul-06 09:30N 36°32' E 014°01'611.5
2018-Jul-06 09:00N 36°31' E 014°08'611.5
2018-Jul-06 08:28N 36°30' E 014°15'511.2
2018-Jul-06 08:00N 36°28' E 014°22'611.1
2018-Jul-06 07:30N 36°27' E 014°28'611.3
2018-Jul-06 07:00N 36°26' E 014°35'611.4
2018-Jul-06 06:30N 36°26' E 014°42'1411.7
2018-Jul-06 05:19N 36°25' E 014°60'411.5
2018-Jul-06 05:00N 36°25' E 015°04'611.6
2018-Jul-06 04:30N 36°25' E 015°11'41712.1
2018-Jul-04 18:00N 36°39' E 023°50'713.1
2018-Jul-04 17:30N 36°44' E 023°56'20513.6
2018-Jul-04 02:30N 39°49' E 025°46'1213.9
2018-Jul-04 01:37N 39°58' E 025°56'214.5
2018-Jul-04 01:27N 40°00' E 025°58'614.2
2018-Jul-04 01:00N 40°01' E 026°06'  
Track history (hours):
 
Tides and Currents Weather Stations Pressure Air Temp Water Temp Dewpoint Dewpoint Depression Visibility Wind Speed Wind Dir Waves Ship Positions

Peney

Last reported at 2018-Jul-11 21:50 UTC. Time now 2018-Jul-22 04:41 UTC.
Position N 27°04' W 014°24'.
Warning: this ship's position is 10 days out of date.

Length 225 m; draft 7.3 m.

Type: Ship. MMSI: 374921000.

Date/timePositionNaut miles runAvg speedWind from/ knotsBaromVisibWave heightAir tempDewpointWater temp
2018-Jul-11 21:50N 27°04' W 014°24'812.4
2018-Jul-11 21:12N 27°11' W 014°19'312.5
2018-Jul-11 21:00N 27°13' W 014°18'812.7
2018-Jul-11 20:24N 27°19' W 014°13'612.9
2018-Jul-11 19:58N 27°24' W 014°09'613.0
2018-Jul-11 19:29N 27°29' W 014°05'612.7
2018-Jul-11 18:59N 27°34' W 014°02'1013.0
2018-Jul-11 18:14N 27°42' W 013°56'313.4
2018-Jul-11 18:01N 27°45' W 013°54'713.3
2018-Jul-11 17:30N 27°50' W 013°49'713.0
2018-Jul-11 16:57N 27°56' W 013°45'613.1
2018-Jul-11 16:30N 28°02' W 013°42'713.3
2018-Jul-11 15:59N 28°08' W 013°39'2013.0
2018-Jul-11 14:25N 28°26' W 013°29'612.9
2018-Jul-11 13:58N 28°32' W 013°27'612.8
2018-Jul-11 13:30N 28°37' W 013°24'612.9
2018-Jul-11 13:01N 28°43' W 013°21'712.9
2018-Jul-11 12:29N 28°49' W 013°18'612.8
2018-Jul-11 12:00N 28°55' W 013°15'712.8
2018-Jul-11 11:29N 29°01' W 013°12'612.7
2018-Jul-11 10:59N 29°06' W 013°08'1612.8
2018-Jul-11 09:42N 29°20' W 012°57'412.9
2018-Jul-11 09:23N 29°23' W 012°54'513.0
2018-Jul-11 09:00N 29°27' W 012°51'712.9
2018-Jul-11 08:26N 29°33' W 012°46'613.0
2018-Jul-11 08:01N 29°37' W 012°42'713.2
2018-Jul-11 07:30N 29°43' W 012°37'813.1
2018-Jul-11 06:53N 29°49' W 012°32'513.2
2018-Jul-11 06:30N 29°53' W 012°29'713.3
2018-Jul-11 05:59N 29°59' W 012°24'713.4
2018-Jul-11 05:29N 30°05' W 012°20'613.5
2018-Jul-11 05:00N 30°10' W 012°15'713.4
2018-Jul-11 04:30N 30°15' W 012°10'713.6
2018-Jul-11 04:01N 30°21' W 012°06'713.8
2018-Jul-11 03:30N 30°26' W 012°01'814.3
2018-Jul-11 02:59N 30°32' W 011°56'714.2
2018-Jul-11 02:31N 30°38' W 011°52'913.7
2018-Jul-11 01:49N 30°46' W 011°45'413.5
2018-Jul-11 01:30N 30°49' W 011°43'713.3
2018-Jul-11 00:59N 30°55' W 011°38'1813.1
2018-Jul-10 23:38N 31°09' W 011°26'313.1
2018-Jul-10 23:24N 31°11' W 011°24'513.1
2018-Jul-10 23:00N 31°16' W 011°20'713.2
2018-Jul-10 22:30N 31°21' W 011°15'613.2
2018-Jul-10 22:01N 31°26' W 011°11'713.1
2018-Jul-10 21:31N 31°32' W 011°07'713.0
2018-Jul-10 20:57N 31°38' W 011°02'713.4
2018-Jul-10 20:26N 31°43' W 010°57'613.5
2018-Jul-10 20:00N 31°48' W 010°53'3613.6
2018-Jul-10 17:20N 32°17' W 010°27'1013.6
2018-Jul-10 16:36N 32°24' W 010°19'313.8
2018-Jul-10 16:23N 32°26' W 010°16'613.7
2018-Jul-10 15:58N 32°30' W 010°12'3213.6
2018-Jul-10 13:38N 32°52' W 009°44'213.5
2018-Jul-10 13:30N 32°53' W 009°42'1113.6
2018-Jul-10 12:43N 33°01' W 009°33'413.3
2018-Jul-10 12:25N 33°03' W 009°30'14112.7
2018-Jul-10 01:21N 34°41' W 007°27'1012.6
2018-Jul-10 00:34N 34°48' W 007°19'112.7
2018-Jul-10 00:30N 34°48' W 007°18'4912.8
2018-Jul-09 20:40N 35°23' W 006°36'6312.5
2018-Jul-09 15:38N 35°59' W 005°32'1 9.6
2018-Jul-09 15:30N 35°59' W 005°31'5 9.7
2018-Jul-09 15:00N 36°00' W 005°25'510.9
2018-Jul-09 14:30N 36°02' W 005°18'44012.2
2018-Jul-08 02:22N 37°00' E 003°44'512.8
2018-Jul-08 02:00N 37°01' E 003°50'612.8
2018-Jul-08 01:30N 37°02' E 003°58'812.6
2018-Jul-08 00:54N 37°03' E 004°08'512.5
2018-Jul-08 00:28N 37°04' E 004°14'612.5
2018-Jul-07 23:59N 37°05' E 004°22'612.4
2018-Jul-07 23:30N 37°06' E 004°29'612.4
2018-Jul-07 23:00N 37°06' E 004°37'612.5
2018-Jul-07 22:30N 37°07' E 004°45'1312.7
2018-Jul-07 21:29N 37°10' E 005°00'912.9
2018-Jul-07 20:47N 37°11' E 005°12'413.0
2018-Jul-07 20:30N 37°11' E 005°16'713.3
2018-Jul-07 20:00N 37°12' E 005°24'713.6
2018-Jul-07 19:30N 37°13' E 005°33'713.8
2018-Jul-07 19:00N 37°14' E 005°42'33612.1
2018-Jul-06 15:07N 36°49' E 012°42'112.2
2018-Jul-06 15:00N 36°48' E 012°43'612.1
2018-Jul-06 14:29N 36°45' E 012°50'612.1
2018-Jul-06 14:00N 36°43' E 012°57'612.3
2018-Jul-06 13:30N 36°41' E 013°04'612.2
2018-Jul-06 13:00N 36°40' E 013°11'611.9
2018-Jul-06 12:30N 36°39' E 013°19'611.6
2018-Jul-06 12:00N 36°38' E 013°26'611.6
2018-Jul-06 11:30N 36°37' E 013°33'611.6
2018-Jul-06 11:00N 36°35' E 013°40'611.5
2018-Jul-06 10:29N 36°34' E 013°47'611.5
2018-Jul-06 10:00N 36°33' E 013°54'611.4
2018-Jul-06 09:30N 36°32' E 014°01'611.5
2018-Jul-06 09:00N 36°31' E 014°08'611.5
2018-Jul-06 08:28N 36°30' E 014°15'511.2
2018-Jul-06 08:00N 36°28' E 014°22'611.1
2018-Jul-06 07:30N 36°27' E 014°28'611.3
2018-Jul-06 07:00N 36°26' E 014°35'611.4
2018-Jul-06 06:30N 36°26' E 014°42'1411.7
2018-Jul-06 05:19N 36°25' E 014°60'411.5
2018-Jul-06 05:00N 36°25' E 015°04'611.6
2018-Jul-06 04:30N 36°25' E 015°11'41712.1
2018-Jul-04 18:00N 36°39' E 023°50'713.1
2018-Jul-04 17:30N 36°44' E 023°56'20513.6
2018-Jul-04 02:30N 39°49' E 025°46'1213.9
2018-Jul-04 01:37N 39°58' E 025°56'214.5
2018-Jul-04 01:27N 40°00' E 025°58'614.2
2018-Jul-04 01:00N 40°01' E 026°06'  

Dump ship's entire track history